Terminal Aerodrome Forecast
Issued by NWS Indianapolis, IN

Home | Current Version | Previous Version | Text Only | Print | Product List | Glossary On
Versions: 1 2 3 4 5 6 7 8 9 10 11 12 13 14 15 16 17 18 19 20 21 22 23 24
000
FTUS43 KIND 261700
TAFIND
TAF
KIND 261720Z 2618/2724 22013KT P6SM FEW050 BKN250
     FM270100 23009KT P6SM VCTS BKN040CB
     FM270300 21008KT 3SM TSRA BKN040CB
     FM270900 22009KT P6SM BKN015
     FM272000 25013KT P6SM VCTS BKN040CB=

USA.gov is the U.S. government's official web portal to all federal, state and local government web resources and services.